Terminal Aerodrome Forecast
Issued by NWS

Home | Current Version | Previous Version | Graphics & Text | Print | Product List | Glossary On
Versions: 1 2 3 4 5 6 7 8 9 10 11 12 13 14 15 16 17 18 19 20
000
FTUS43 KBIS 291737
TAFDIK
TAF
KDIK 291737Z 2918/3018 27012G18KT P6SM SCT040
     FM292300 23012G18KT P6SM SCT050 SCT150
     FM300300 19006KT P6SM SCT060 SCT150
     FM301400 16008KT P6SM VCTS SCT050CB SCT150
     FM301700 13008KT P6SM VCTS SCT050CB BKN100 OVC150=

USA.gov is the U.S. government's official web portal to all federal, state and local government web resources and services.